Aérodrome :
LOGIN :

S'inscrire | Disclaimer

   EN    FR    IT 

 










Légende :    VFR   VFR Marginal   IFR   IFR Intensif   IFR Très Intensif
Visi : 
Plafond : 
>= 8 km
>= 3000ft
5 à 8 km
1000 à 3000 ft
1500m à 5 km
500 à 1000 ft
800 à 1500m
200 à 500 ft
< 800m
< 200 ft
Symboles :   Orages  Brouillard  Fortes neiges  Fortes précipitations  Vent > 20 kt
SIGMETs :   Divers  Orages  Givrage  Turbulence  Onde Orograph.  Cendres Volcan.







- Altitude de l'aérodrome : 137 ft


LIPS - Istrana AFB Treviso

DERNIER METAR :
  • 220455Z 00000KT 1600 BR BKN006 05/04 Q1018 RMK BKN VIS MIN 1600 WIND THR26 00000KT WIND THR08 00000KT YLO

METARs EXPIRÉS :
  • 220355Z 34003KT 1600 BR BKN006 04/04 Q1019 RMK BKN VIS MIN 1600 WIND THR26 00000KT WIND THR08 00000KT YLO
  • 220255Z 33004KT 1200 R26//// BR BKN004 03/02 Q1019

TAF TAF LIPS
Valide du 22 à 03h jusqu'au 22 à 12h UTC


220200Z 2203/2212 09002KT 0150 FG OVC001
TEMPO 2203/2206 0600 FG
BECMG 2207/2209 2000 BR SCT004
Pas de NOTAMs connus pour ce terrain.



MET'MAP, la Météo Aéronautique d'un coup d'oeil ! - Copyright ORBIFLY Décembre 2007 - Disclaimer

ORBIFLY MET'MAP TEAM :

Programmation & Développement : Alexandra Zaïnal
Conception & Développement : Baudouin d'Aumeries
Co-Programmation & Développement : Marc-Olivier Méhu
Soutien technique & logistique : Manuel Goepfert

Contact : metmap@orbifly.com




SOURCES & CREDITS :

   NOAA